sensor_id;sensor_type;location;lat;lon;timestamp;temperature;humidity
18268;DHT22;9260;49.998;19.880;2022-09-12T00:07:40;8.70;99.90
18268;DHT22;9260;49.998;19.880;2022-09-12T00:17:44;8.60;99.90
18268;DHT22;9260;49.998;19.880;2022-09-12T00:27:49;8.90;99.90
18268;DHT22;9260;49.998;19.880;2022-09-12T00:37:53;9.00;99.90
18268;DHT22;9260;49.998;19.880;2022-09-12T00:48:01;9.10;99.90
18268;DHT22;9260;49.998;19.880;2022-09-12T00:58:09;8.90;99.90
18268;DHT22;9260;49.998;19.880;2022-09-12T01:08:16;9.00;99.90
18268;DHT22;9260;49.998;19.880;2022-09-12T01:18:24;8.80;99.90
18268;DHT22;9260;49.998;19.880;2022-09-12T01:28:53;9.00;99.90
18268;DHT22;9260;49.998;19.880;2022-09-12T01:39:15;8.90;99.90
18268;DHT22;9260;49.998;19.880;2022-09-12T01:49:24;8.90;99.90
18268;DHT22;9260;49.998;19.880;2022-09-12T01:59:33;9.10;99.90
18268;DHT22;9260;49.998;19.880;2022-09-12T02:09:44;9.10;99.90
18268;DHT22;9260;49.998;19.880;2022-09-12T02:19:54;9.10;99.90
18268;DHT22;9260;49.998;19.880;2022-09-12T02:29:59;8.90;99.90
18268;DHT22;9260;49.998;19.880;2022-09-12T02:40:05;8.50;99.90
18268;DHT22;9260;49.998;19.880;2022-09-12T02:50:10;8.30;99.90
18268;DHT22;9260;49.998;19.880;2022-09-12T03:00:16;8.00;99.90
18268;DHT22;9260;49.998;19.880;2022-09-12T03:10:24;7.70;99.90
18268;DHT22;9260;49.998;19.880;2022-09-12T03:20:42;7.70;99.90
18268;DHT22;9260;49.998;19.880;2022-09-12T03:30:48;7.60;99.90
18268;DHT22;9260;49.998;19.880;2022-09-12T03:40:56;7.60;99.90
18268;DHT22;9260;49.998;19.880;2022-09-12T03:51:00;7.60;99.90
18268;DHT22;9260;49.998;19.880;2022-09-12T04:01:11;7.60;99.90
18268;DHT22;9260;49.998;19.880;2022-09-12T04:11:17;7.80;99.90
18268;DHT22;9260;49.998;19.880;2022-09-12T04:21:23;7.90;99.90
18268;DHT22;9260;49.998;19.880;2022-09-12T04:31:27;8.00;99.90
18268;DHT22;9260;49.998;19.880;2022-09-12T04:41:33;8.00;99.90
18268;DHT22;9260;49.998;19.880;2022-09-12T04:51:39;8.20;99.90
18268;DHT22;9260;49.998;19.880;2022-09-12T05:01:45;8.40;99.90
18268;DHT22;9260;49.998;19.880;2022-09-12T05:11:49;8.60;99.90
18268;DHT22;9260;49.998;19.880;2022-09-12T05:22:10;9.20;99.90
18268;DHT22;9260;49.998;19.880;2022-09-12T05:32:13;9.50;99.90
18268;DHT22;9260;49.998;19.880;2022-09-12T05:42:19;9.70;99.90
18268;DHT22;9260;49.998;19.880;2022-09-12T05:52:22;10.30;99.90
18268;DHT22;9260;49.998;19.880;2022-09-12T06:02:27;11.00;99.90
18268;DHT22;9260;49.998;19.880;2022-09-12T06:12:31;11.90;99.90
18268;DHT22;9260;49.998;19.880;2022-09-12T06:22:36;12.10;99.90
18268;DHT22;9260;49.998;19.880;2022-09-12T06:32:40;12.30;99.90
18268;DHT22;9260;49.998;19.880;2022-09-12T06:42:45;12.40;99.90
18268;DHT22;9260;49.998;19.880;2022-09-12T06:53:05;13.40;99.90
18268;DHT22;9260;49.998;19.880;2022-09-12T07:03:10;17.90;99.90
18268;DHT22;9260;49.998;19.880;2022-09-12T07:13:14;20.60;99.90
18268;DHT22;9260;49.998;19.880;2022-09-12T07:23:19;20.30;99.90
18268;DHT22;9260;49.998;19.880;2022-09-12T07:33:25;19.70;99.90
18268;DHT22;9260;49.998;19.880;2022-09-12T07:43:31;17.30;99.90
18268;DHT22;9260;49.998;19.880;2022-09-12T07:53:37;18.70;99.90
18268;DHT22;9260;49.998;19.880;2022-09-12T08:03:44;18.10;99.90
18268;DHT22;9260;49.998;19.880;2022-09-12T08:13:49;21.90;99.90
18268;DHT22;9260;49.998;19.880;2022-09-12T08:24:00;25.00;99.90
18268;DHT22;9260;49.998;19.880;2022-09-12T08:34:05;29.20;99.90
18268;DHT22;9260;49.998;19.880;2022-09-12T08:44:35;25.70;99.90
18268;DHT22;9260;49.998;19.880;2022-09-12T08:54:49;30.20;99.90
18268;DHT22;9260;49.998;19.880;2022-09-12T09:04:56;26.40;99.90
18268;DHT22;9260;49.998;19.880;2022-09-12T09:15:21;33.50;99.90
18268;DHT22;9260;49.998;19.880;2022-09-12T09:25:41;31.10;99.90
18268;DHT22;9260;49.998;19.880;2022-09-12T09:35:55;28.30;99.90
18268;DHT22;9260;49.998;19.880;2022-09-12T09:46:04;36.60;99.90
18268;DHT22;9260;49.998;19.880;2022-09-12T09:56:12;37.40;99.90
18268;DHT22;9260;49.998;19.880;2022-09-12T10:06:32;34.90;99.90
18268;DHT22;9260;49.998;19.880;2022-09-12T10:16:48;35.10;99.90
18268;DHT22;9260;49.998;19.880;2022-09-12T10:27:04;38.60;99.90
18268;DHT22;9260;49.998;19.880;2022-09-12T10:37:17;35.60;99.90
18268;DHT22;9260;49.998;19.880;2022-09-12T10:47:24;38.30;99.90
18268;DHT22;9260;49.998;19.880;2022-09-12T10:57:49;44.20;99.90
18268;DHT22;9260;49.998;19.880;2022-09-12T11:08:15;44.60;99.90
18268;DHT22;9260;49.998;19.880;2022-09-12T11:18:36;44.00;99.90
18268;DHT22;9260;49.998;19.880;2022-09-12T11:29:16;43.00;99.90
18268;DHT22;9260;49.998;19.880;2022-09-12T11:39:31;45.20;99.90
18268;DHT22;9260;49.998;19.880;2022-09-12T11:49:44;41.00;99.90
18268;DHT22;9260;49.998;19.880;2022-09-12T11:59:53;42.70;99.90
18268;DHT22;9260;49.998;19.880;2022-09-12T12:10:00;46.80;99.90
18268;DHT22;9260;49.998;19.880;2022-09-12T12:20:04;44.80;99.90
18268;DHT22;9260;49.998;19.880;2022-09-12T12:41:41;43.70;99.90
18268;DHT22;9260;49.998;19.880;2022-09-12T12:51:57;46.10;1.00
18268;DHT22;9260;49.998;19.880;2022-09-12T13:02:03;43.10;99.90
18268;DHT22;9260;49.998;19.880;2022-09-12T13:12:11;36.50;99.90
18268;DHT22;9260;49.998;19.880;2022-09-12T13:22:21;38.00;99.90
18268;DHT22;9260;49.998;19.880;2022-09-12T13:32:28;36.30;99.90
18268;DHT22;9260;49.998;19.880;2022-09-12T13:42:42;34.20;99.90
18268;DHT22;9260;49.998;19.880;2022-09-12T13:52:51;32.30;99.90
18268;DHT22;9260;49.998;19.880;2022-09-12T14:02:57;27.80;99.90
18268;DHT22;9260;49.998;19.880;2022-09-12T14:13:23;24.40;99.90
18268;DHT22;9260;49.998;19.880;2022-09-12T14:23:29;22.40;99.90
18268;DHT22;9260;49.998;19.880;2022-09-12T14:33:47;20.80;99.90
18268;DHT22;9260;49.998;19.880;2022-09-12T14:43:54;19.80;99.90
18268;DHT22;9260;49.998;19.880;2022-09-12T14:54:02;18.90;99.90
18268;DHT22;9260;49.998;19.880;2022-09-12T15:04:05;18.30;99.90
18268;DHT22;9260;49.998;19.880;2022-09-12T15:14:13;17.90;99.90
18268;DHT22;9260;49.998;19.880;2022-09-12T15:24:17;17.70;99.90
18268;DHT22;9260;49.998;19.880;2022-09-12T15:34:21;17.30;99.90
18268;DHT22;9260;49.998;19.880;2022-09-12T15:44:25;17.00;99.90
18268;DHT22;9260;49.998;19.880;2022-09-12T15:54:30;16.60;99.90
18268;DHT22;9260;49.998;19.880;2022-09-12T16:04:33;16.20;99.90
18268;DHT22;9260;49.998;19.880;2022-09-12T16:14:38;15.80;99.90
18268;DHT22;9260;49.998;19.880;2022-09-12T16:24:42;15.30;99.90
18268;DHT22;9260;49.998;19.880;2022-09-12T16:34:47;14.80;99.90
18268;DHT22;9260;49.998;19.880;2022-09-12T16:44:51;14.60;99.90
18268;DHT22;9260;49.998;19.880;2022-09-12T16:54:56;14.50;99.90
18268;DHT22;9260;49.998;19.880;2022-09-12T17:05:00;14.40;99.90
18268;DHT22;9260;49.998;19.880;2022-09-12T17:15:06;14.10;99.90
18268;DHT22;9260;49.998;19.880;2022-09-12T17:25:11;13.50;99.90
18268;DHT22;9260;49.998;19.880;2022-09-12T17:35:16;12.60;99.90
18268;DHT22;9260;49.998;19.880;2022-09-12T17:45:19;12.30;99.90
18268;DHT22;9260;49.998;19.880;2022-09-12T17:55:25;11.60;99.90
18268;DHT22;9260;49.998;19.880;2022-09-12T18:05:33;11.10;99.90
18268;DHT22;9260;49.998;19.880;2022-09-12T18:15:38;10.70;99.90
18268;DHT22;9260;49.998;19.880;2022-09-12T18:25:42;10.70;99.90
18268;DHT22;9260;49.998;19.880;2022-09-12T18:35:47;10.90;99.90
18268;DHT22;9260;49.998;19.880;2022-09-12T18:45:50;10.80;99.90
18268;DHT22;9260;49.998;19.880;2022-09-12T18:56:00;10.50;99.90
18268;DHT22;9260;49.998;19.880;2022-09-12T19:06:06;10.70;99.90
18268;DHT22;9260;49.998;19.880;2022-09-12T19:16:16;10.80;99.90
18268;DHT22;9260;49.998;19.880;2022-09-12T19:26:20;10.80;99.90
18268;DHT22;9260;49.998;19.880;2022-09-12T19:36:26;10.80;99.90
18268;DHT22;9260;49.998;19.880;2022-09-12T19:46:48;10.40;99.90
18268;DHT22;9260;49.998;19.880;2022-09-12T19:56:53;10.10;99.90
18268;DHT22;9260;49.998;19.880;2022-09-12T20:06:57;10.20;99.90
18268;DHT22;9260;49.998;19.880;2022-09-12T20:17:02;9.70;99.90
18268;DHT22;9260;49.998;19.880;2022-09-12T20:27:05;9.20;99.90
18268;DHT22;9260;49.998;19.880;2022-09-12T20:37:10;8.80;99.90
18268;DHT22;9260;49.998;19.880;2022-09-12T20:47:14;8.40;99.90
18268;DHT22;9260;49.998;19.880;2022-09-12T20:57:19;8.10;99.90
18268;DHT22;9260;49.998;19.880;2022-09-12T21:07:24;7.90;99.90
18268;DHT22;9260;49.998;19.880;2022-09-12T21:17:29;7.70;99.90
18268;DHT22;9260;49.998;19.880;2022-09-12T21:27:32;7.50;99.90
18268;DHT22;9260;49.998;19.880;2022-09-12T21:37:37;7.40;99.90
18268;DHT22;9260;49.998;19.880;2022-09-12T21:47:41;7.30;99.90
18268;DHT22;9260;49.998;19.880;2022-09-12T21:57:46;7.20;99.90
18268;DHT22;9260;49.998;19.880;2022-09-12T22:07:50;7.10;99.90
18268;DHT22;9260;49.998;19.880;2022-09-12T22:17:56;6.90;99.90
18268;DHT22;9260;49.998;19.880;2022-09-12T22:28:00;6.80;99.90
18268;DHT22;9260;49.998;19.880;2022-09-12T22:38:05;6.80;99.90
18268;DHT22;9260;49.998;19.880;2022-09-12T22:48:09;6.60;99.90
18268;DHT22;9260;49.998;19.880;2022-09-12T22:58:14;6.50;99.90
18268;DHT22;9260;49.998;19.880;2022-09-12T23:08:18;6.30;99.90
18268;DHT22;9260;49.998;19.880;2022-09-12T23:18:23;6.10;99.90
18268;DHT22;9260;49.998;19.880;2022-09-12T23:28:27;6.00;99.90
18268;DHT22;9260;49.998;19.880;2022-09-12T23:38:34;5.80;99.90
18268;DHT22;9260;49.998;19.880;2022-09-12T23:48:38;5.60;99.90
18268;DHT22;9260;49.998;19.880;2022-09-12T23:58:44;5.60;99.90
